Terminal Aerodrome Forecast
Issued by NWS

Current Version | Previous Version | Text Only | Print | Product List | Glossary On
Versions: 1 2 3 4 5 6 7 8 9 10 11 12 13 14
506
FTUS46 KLOX 141126
TAFSBP
TAF
KSBP 141126Z 1412/1512 31006KT P6SM SKC
     FM141300 08008KT P6SM SKC
     FM141600 34014G22KT P6SM SCT250
     FM150300 08006KT P6SM SCT250
     FM150800 VRB03KT P6SM SCT250=

USA.gov is the U.S. government's official web portal to all federal, state and local government web resources and services.